Terminal Aerodrome Forecast
Issued by NWS Upton, NY

Home | Current Version | Previous Version | Text Only | Print | Product List | Glossary On
Versions: 1 2 3 4 5 6 7 8 9 10 11 12 13 14 15 16 17 18 19 20 21 22 23 24 25 26 27 28 29 30 31
000
FTUS41 KOKX 221100 CCA
TAFEWR
TAF COR
KEWR 221142Z 2212/2318 02007KT P6SM BKN015 OVC025
      TEMPO 2212/2214 BKN009
     FM221400 04006KT P6SM BKN010 OVC020
     FM221700 06006KT 6SM -RA BKN010 OVC020
     FM230700 04008KT 5SM -RA BR OVC008
     FM231300 05009KT 3SM -DZ BR BKN008 OVC025=

USA.gov is the U.S. government's official web portal to all federal, state and local government web resources and services.